sensor_id;sensor_type;location;lat;lon;timestamp;pressure;altitude;pressure_sealevel;temperature;humidity
19576;BME280;41589;51.196;7.074;2023-11-21T00:02:47;98371.72;;;11.52;81.85
19576;BME280;41589;51.196;7.074;2023-11-21T00:07:48;98374.38;;;11.56;81.79
19576;BME280;41589;51.196;7.074;2023-11-21T00:12:48;98375.81;;;11.51;81.92
19576;BME280;41589;51.196;7.074;2023-11-21T00:17:48;98374.84;;;11.54;81.98
19576;BME280;41589;51.196;7.074;2023-11-21T00:22:49;98379.69;;;11.54;81.92
19576;BME280;41589;51.196;7.074;2023-11-21T00:27:50;98373.97;;;11.48;81.15
19576;BME280;41589;51.196;7.074;2023-11-21T00:32:50;98386.03;;;11.49;81.53
19576;BME280;41589;51.196;7.074;2023-11-21T00:37:51;98390.59;;;11.46;81.35
19576;BME280;41589;51.196;7.074;2023-11-21T00:42:51;98389.53;;;11.44;81.48
19576;BME280;41589;51.196;7.074;2023-11-21T00:47:53;98390.22;;;11.39;81.49
19576;BME280;41589;51.196;7.074;2023-11-21T00:52:53;98388.06;;;11.34;81.46
19576;BME280;41589;51.196;7.074;2023-11-21T00:57:53;98396.22;;;11.32;81.90
19576;BME280;41589;51.196;7.074;2023-11-21T01:02:54;98408.97;;;11.27;81.35
19576;BME280;41589;51.196;7.074;2023-11-21T01:07:54;98404.59;;;11.26;81.46
19576;BME280;41589;51.196;7.074;2023-11-21T01:12:55;98412.56;;;11.27;81.54
19576;BME280;41589;51.196;7.074;2023-11-21T01:17:55;98409.47;;;11.25;81.65
19576;BME280;41589;51.196;7.074;2023-11-21T01:22:56;98410.22;;;11.26;81.85
19576;BME280;41589;51.196;7.074;2023-11-21T01:27:56;98404.41;;;11.29;81.88
19576;BME280;41589;51.196;7.074;2023-11-21T01:32:56;98426.44;;;11.31;81.83
19576;BME280;41589;51.196;7.074;2023-11-21T01:37:57;98427.78;;;11.21;81.27
19576;BME280;41589;51.196;7.074;2023-11-21T01:42:57;98424.19;;;11.20;81.99
19576;BME280;41589;51.196;7.074;2023-11-21T01:47:58;98425.50;;;11.10;82.09
19576;BME280;41589;51.196;7.074;2023-11-21T01:53:00;98424.94;;;11.06;82.71
19576;BME280;41589;51.196;7.074;2023-11-21T01:58:01;98423.59;;;11.16;82.96
19576;BME280;41589;51.196;7.074;2023-11-21T02:03:02;98428.41;;;11.01;82.99
19576;BME280;41589;51.196;7.074;2023-11-21T02:08:03;98420.94;;;10.98;83.41
19576;BME280;41589;51.196;7.074;2023-11-21T02:13:04;98430.44;;;11.00;83.08
19576;BME280;41589;51.196;7.074;2023-11-21T02:18:05;98448.19;;;10.92;83.91
19576;BME280;41589;51.196;7.074;2023-11-21T02:23:06;98448.38;;;10.88;84.32
19576;BME280;41589;51.196;7.074;2023-11-21T02:28:07;98453.19;;;10.97;84.08
19576;BME280;41589;51.196;7.074;2023-11-21T02:33:07;98457.56;;;11.13;84.62
19576;BME280;41589;51.196;7.074;2023-11-21T02:38:08;98457.88;;;11.15;84.10
19576;BME280;41589;51.196;7.074;2023-11-21T02:43:08;98458.50;;;11.19;84.09
19576;BME280;41589;51.196;7.074;2023-11-21T02:48:09;98463.88;;;11.08;84.02
19576;BME280;41589;51.196;7.074;2023-11-21T02:53:09;98461.00;;;11.17;83.82
19576;BME280;41589;51.196;7.074;2023-11-21T02:58:10;98466.13;;;11.04;83.14
19576;BME280;41589;51.196;7.074;2023-11-21T03:03:11;98477.25;;;10.98;84.03
19576;BME280;41589;51.196;7.074;2023-11-21T03:08:11;98481.03;;;10.95;83.67
19576;BME280;41589;51.196;7.074;2023-11-21T03:13:12;98488.88;;;10.91;83.76
19576;BME280;41589;51.196;7.074;2023-11-21T03:18:12;98479.59;;;10.99;84.12
19576;BME280;41589;51.196;7.074;2023-11-21T03:23:13;98492.59;;;10.97;84.03
19576;BME280;41589;51.196;7.074;2023-11-21T03:28:14;98494.16;;;10.98;84.00
19576;BME280;41589;51.196;7.074;2023-11-21T03:33:14;98490.56;;;10.97;84.04
19576;BME280;41589;51.196;7.074;2023-11-21T03:38:15;98495.06;;;11.04;84.13
19576;BME280;41589;51.196;7.074;2023-11-21T03:43:16;98498.94;;;11.07;84.25
19576;BME280;41589;51.196;7.074;2023-11-21T03:48:16;98504.66;;;11.12;83.58
19576;BME280;41589;51.196;7.074;2023-11-21T03:53:17;98519.53;;;11.13;83.75
19576;BME280;41589;51.196;7.074;2023-11-21T03:58:17;98532.16;;;11.03;83.97
19576;BME280;41589;51.196;7.074;2023-11-21T04:03:18;98535.78;;;11.18;83.79
19576;BME280;41589;51.196;7.074;2023-11-21T04:08:19;98543.13;;;11.24;83.68
19576;BME280;41589;51.196;7.074;2023-11-21T04:13:19;98535.25;;;11.28;83.55
19576;BME280;41589;51.196;7.074;2023-11-21T04:18:20;98543.16;;;11.15;82.99
19576;BME280;41589;51.196;7.074;2023-11-21T04:23:20;98536.41;;;11.22;83.75
19576;BME280;41589;51.196;7.074;2023-11-21T04:28:20;98539.06;;;11.25;83.66
19576;BME280;41589;51.196;7.074;2023-11-21T04:33:21;98542.44;;;11.29;83.15
19576;BME280;41589;51.196;7.074;2023-11-21T04:38:22;98543.41;;;11.26;83.16
19576;BME280;41589;51.196;7.074;2023-11-21T04:43:22;98548.38;;;11.32;83.42
19576;BME280;41589;51.196;7.074;2023-11-21T04:48:23;98556.34;;;11.33;83.08
19576;BME280;41589;51.196;7.074;2023-11-21T04:53:23;98550.25;;;11.35;82.90
19576;BME280;41589;51.196;7.074;2023-11-21T04:58:24;98556.47;;;11.39;82.77
19576;BME280;41589;51.196;7.074;2023-11-21T05:03:24;98559.00;;;11.37;82.83
19576;BME280;41589;51.196;7.074;2023-11-21T05:08:24;98569.97;;;11.35;82.83
19576;BME280;41589;51.196;7.074;2023-11-21T05:13:26;98567.44;;;11.37;82.72
19576;BME280;41589;51.196;7.074;2023-11-21T05:18:27;98573.06;;;11.37;82.79
19576;BME280;41589;51.196;7.074;2023-11-21T05:23:29;98573.56;;;11.35;82.53
19576;BME280;41589;51.196;7.074;2023-11-21T05:28:30;98589.38;;;11.33;82.61
19576;BME280;41589;51.196;7.074;2023-11-21T05:33:30;98588.09;;;11.34;82.64
19576;BME280;41589;51.196;7.074;2023-11-21T05:38:30;98600.66;;;11.33;82.33
19576;BME280;41589;51.196;7.074;2023-11-21T05:43:31;98595.97;;;11.29;82.29
19576;BME280;41589;51.196;7.074;2023-11-21T05:48:32;98609.28;;;11.29;82.21
19576;BME280;41589;51.196;7.074;2023-11-21T05:53:33;98608.69;;;11.25;82.00
19576;BME280;41589;51.196;7.074;2023-11-21T05:58:33;98620.13;;;11.21;81.98
19576;BME280;41589;51.196;7.074;2023-11-21T06:03:33;98623.59;;;11.16;81.62
19576;BME280;41589;51.196;7.074;2023-11-21T06:08:34;98633.66;;;11.08;81.65
19576;BME280;41589;51.196;7.074;2023-11-21T06:13:34;98653.84;;;11.07;81.43
19576;BME280;41589;51.196;7.074;2023-11-21T06:18:34;98648.06;;;11.01;81.83
19576;BME280;41589;51.196;7.074;2023-11-21T06:23:35;98662.00;;;11.05;81.55
19576;BME280;41589;51.196;7.074;2023-11-21T06:28:35;98658.75;;;10.97;81.64
19576;BME280;41589;51.196;7.074;2023-11-21T06:33:36;98673.59;;;10.97;81.64
19576;BME280;41589;51.196;7.074;2023-11-21T06:38:37;98671.56;;;10.98;81.70
19576;BME280;41589;51.196;7.074;2023-11-21T06:43:37;98678.28;;;11.00;81.84
19576;BME280;41589;51.196;7.074;2023-11-21T06:48:38;98690.19;;;10.95;82.14
19576;BME280;41589;51.196;7.074;2023-11-21T06:53:38;98695.94;;;11.01;82.23
19576;BME280;41589;51.196;7.074;2023-11-21T06:58:38;98706.63;;;10.97;82.26
19576;BME280;41589;51.196;7.074;2023-11-21T07:03:40;98720.09;;;10.93;81.87
19576;BME280;41589;51.196;7.074;2023-11-21T07:08:41;98711.97;;;10.86;83.12
19576;BME280;41589;51.196;7.074;2023-11-21T07:13:42;98734.19;;;10.93;83.85
19576;BME280;41589;51.196;7.074;2023-11-21T07:18:43;98750.91;;;10.96;83.34
19576;BME280;41589;51.196;7.074;2023-11-21T07:23:43;98756.66;;;11.02;83.51
19576;BME280;41589;51.196;7.074;2023-11-21T07:28:43;98755.88;;;11.01;83.84
19576;BME280;41589;51.196;7.074;2023-11-21T07:33:44;98756.94;;;11.13;84.18
19576;BME280;41589;51.196;7.074;2023-11-21T07:38:47;98764.59;;;11.22;84.28
19576;BME280;41589;51.196;7.074;2023-11-21T07:43:48;98766.47;;;11.25;84.06
19576;BME280;41589;51.196;7.074;2023-11-21T07:48:48;98765.63;;;11.34;84.35
19576;BME280;41589;51.196;7.074;2023-11-21T07:53:49;98766.53;;;11.40;84.39
19576;BME280;41589;51.196;7.074;2023-11-21T07:58:49;98768.09;;;11.41;84.42
19576;BME280;41589;51.196;7.074;2023-11-21T08:03:50;98773.75;;;11.41;83.65
19576;BME280;41589;51.196;7.074;2023-11-21T08:08:52;98779.84;;;11.39;84.44
19576;BME280;41589;51.196;7.074;2023-11-21T08:13:53;98784.69;;;11.48;84.82
19576;BME280;41589;51.196;7.074;2023-11-21T08:18:54;98800.28;;;11.58;84.75
19576;BME280;41589;51.196;7.074;2023-11-21T08:23:55;98816.53;;;11.63;84.73
19576;BME280;41589;51.196;7.074;2023-11-21T08:28:55;98821.66;;;11.74;84.86
19576;BME280;41589;51.196;7.074;2023-11-21T08:33:56;98837.16;;;11.78;84.88
19576;BME280;41589;51.196;7.074;2023-11-21T08:38:57;98846.38;;;11.79;84.62
19576;BME280;41589;51.196;7.074;2023-11-21T08:43:58;98845.41;;;11.82;84.81
19576;BME280;41589;51.196;7.074;2023-11-21T08:48:58;98848.06;;;11.85;85.14
19576;BME280;41589;51.196;7.074;2023-11-21T08:53:58;98858.22;;;11.92;85.04
19576;BME280;41589;51.196;7.074;2023-11-21T08:59:01;98856.19;;;11.93;84.91
19576;BME280;41589;51.196;7.074;2023-11-21T09:04:02;98865.72;;;11.95;84.75
19576;BME280;41589;51.196;7.074;2023-11-21T09:09:02;98867.59;;;11.98;85.04
19576;BME280;41589;51.196;7.074;2023-11-21T09:14:06;98877.44;;;12.03;84.52
19576;BME280;41589;51.196;7.074;2023-11-21T09:19:06;98872.56;;;12.03;84.76
19576;BME280;41589;51.196;7.074;2023-11-21T09:24:07;98880.88;;;12.07;85.01
19576;BME280;41589;51.196;7.074;2023-11-21T09:29:09;98898.41;;;12.11;84.67
19576;BME280;41589;51.196;7.074;2023-11-21T09:34:09;98892.41;;;12.18;84.51
19576;BME280;41589;51.196;7.074;2023-11-21T09:39:12;98906.97;;;12.16;85.05
19576;BME280;41589;51.196;7.074;2023-11-21T09:44:18;98911.72;;;12.10;84.10
19576;BME280;41589;51.196;7.074;2023-11-21T09:49:23;98926.69;;;11.93;84.44
19576;BME280;41589;51.196;7.074;2023-11-21T09:54:25;98926.59;;;11.78;84.42
19576;BME280;41589;51.196;7.074;2023-11-21T09:59:30;98927.53;;;11.75;85.62
19576;BME280;41589;51.196;7.074;2023-11-21T10:04:31;98926.56;;;11.87;86.05
19576;BME280;41589;51.196;7.074;2023-11-21T10:09:31;98918.53;;;11.95;85.74
19576;BME280;41589;51.196;7.074;2023-11-21T10:14:33;98922.56;;;12.03;85.68
19576;BME280;41589;51.196;7.074;2023-11-21T10:19:36;98931.66;;;12.07;84.89
19576;BME280;41589;51.196;7.074;2023-11-21T10:24:37;98926.31;;;12.09;85.32
19576;BME280;41589;51.196;7.074;2023-11-21T10:29:39;98918.44;;;12.13;85.54
19576;BME280;41589;51.196;7.074;2023-11-21T10:34:40;98936.41;;;12.25;85.65
19576;BME280;41589;51.196;7.074;2023-11-21T10:39:41;98931.75;;;12.12;84.33
19576;BME280;41589;51.196;7.074;2023-11-21T10:44:45;98937.56;;;12.18;85.12
19576;BME280;41589;51.196;7.074;2023-11-21T10:49:48;98930.16;;;12.21;85.37
19576;BME280;41589;51.196;7.074;2023-11-21T10:54:49;98947.97;;;12.27;85.56
19576;BME280;41589;51.196;7.074;2023-11-21T10:59:50;98949.69;;;12.33;85.26
19576;BME280;41589;51.196;7.074;2023-11-21T11:04:52;98954.88;;;12.26;85.15
19576;BME280;41589;51.196;7.074;2023-11-21T11:09:54;98948.66;;;12.22;84.36
19576;BME280;41589;51.196;7.074;2023-11-21T11:14:55;98969.25;;;12.04;85.33
19576;BME280;41589;51.196;7.074;2023-11-21T11:19:55;98959.63;;;12.20;85.59
19576;BME280;41589;51.196;7.074;2023-11-21T11:30:39;98973.53;;;12.32;85.58
19576;BME280;41589;51.196;7.074;2023-11-21T11:36:06;98974.59;;;12.02;84.05
19576;BME280;41589;51.196;7.074;2023-11-21T11:41:07;98962.53;;;12.01;86.10
19576;BME280;41589;51.196;7.074;2023-11-21T11:46:10;98963.06;;;12.24;85.87
19576;BME280;41589;51.196;7.074;2023-11-21T11:51:15;98971.09;;;12.16;85.36
19576;BME280;41589;51.196;7.074;2023-11-21T11:56:24;98976.38;;;12.23;85.82
19576;BME280;41589;51.196;7.074;2023-11-21T12:01:29;98979.41;;;12.20;85.91
19576;BME280;41589;51.196;7.074;2023-11-21T12:06:35;98981.22;;;12.32;85.89
19576;BME280;41589;51.196;7.074;2023-11-21T12:11:36;98982.00;;;12.32;86.01
19576;BME280;41589;51.196;7.074;2023-11-21T12:16:37;98986.91;;;12.56;85.96
19576;BME280;41589;51.196;7.074;2023-11-21T12:21:37;98989.41;;;12.78;85.11
19576;BME280;41589;51.196;7.074;2023-11-21T12:26:40;98996.81;;;12.75;85.85
19576;BME280;41589;51.196;7.074;2023-11-21T12:31:40;99009.78;;;12.58;85.22
19576;BME280;41589;51.196;7.074;2023-11-21T12:36:40;99005.59;;;12.53;84.46
19576;BME280;41589;51.196;7.074;2023-11-21T12:41:41;99002.53;;;12.33;85.24
19576;BME280;41589;51.196;7.074;2023-11-21T12:46:42;99005.28;;;12.18;84.58
19576;BME280;41589;51.196;7.074;2023-11-21T12:51:45;99018.13;;;12.19;86.32
19576;BME280;41589;51.196;7.074;2023-11-21T12:56:46;99020.53;;;12.35;85.60
19576;BME280;41589;51.196;7.074;2023-11-21T13:01:50;99014.34;;;12.22;85.82
19576;BME280;41589;51.196;7.074;2023-11-21T13:06:51;99011.88;;;12.06;85.14
19576;BME280;41589;51.196;7.074;2023-11-21T13:11:59;99024.31;;;11.99;86.71
19576;BME280;41589;51.196;7.074;2023-11-21T13:16:59;99025.91;;;12.24;85.92
19576;BME280;41589;51.196;7.074;2023-11-21T13:22:00;99032.31;;;12.34;85.46
19576;BME280;41589;51.196;7.074;2023-11-21T13:27:04;99038.38;;;12.08;85.21
19576;BME280;41589;51.196;7.074;2023-11-21T13:32:04;99042.88;;;12.15;85.87
19576;BME280;41589;51.196;7.074;2023-11-21T13:37:06;99042.88;;;12.15;86.00
19576;BME280;41589;51.196;7.074;2023-11-21T13:42:07;99058.75;;;12.03;85.78
19576;BME280;41589;51.196;7.074;2023-11-21T13:47:09;99056.25;;;11.96;86.48
19576;BME280;41589;51.196;7.074;2023-11-21T13:52:10;99062.34;;;12.13;87.45
19576;BME280;41589;51.196;7.074;2023-11-21T13:57:15;99071.28;;;12.11;86.90
19576;BME280;41589;51.196;7.074;2023-11-21T14:02:16;99068.94;;;12.10;86.56
19576;BME280;41589;51.196;7.074;2023-11-21T14:07:21;99083.69;;;11.96;87.44
19576;BME280;41589;51.196;7.074;2023-11-21T14:12:48;99084.00;;;12.07;87.35
19576;BME280;41589;51.196;7.074;2023-11-21T14:17:48;99094.34;;;12.01;86.96
19576;BME280;41589;51.196;7.074;2023-11-21T14:22:49;99100.16;;;11.88;87.16
19576;BME280;41589;51.196;7.074;2023-11-21T14:27:50;99097.34;;;11.97;87.34
19576;BME280;41589;51.196;7.074;2023-11-21T14:32:51;99100.66;;;11.86;87.08
19576;BME280;41589;51.196;7.074;2023-11-21T14:37:51;99098.59;;;11.87;87.36
19576;BME280;41589;51.196;7.074;2023-11-21T14:42:51;99103.59;;;12.01;87.25
19576;BME280;41589;51.196;7.074;2023-11-21T14:47:58;99099.66;;;12.08;86.77
19576;BME280;41589;51.196;7.074;2023-11-21T14:53:16;99111.56;;;12.03;85.88
19576;BME280;41589;51.196;7.074;2023-11-21T14:58:29;99134.16;;;11.94;86.42
19576;BME280;41589;51.196;7.074;2023-11-21T15:03:29;99133.06;;;11.91;86.11
19576;BME280;41589;51.196;7.074;2023-11-21T15:08:33;99148.72;;;11.83;86.22
19576;BME280;41589;51.196;7.074;2023-11-21T15:13:33;99158.63;;;11.78;86.30
19576;BME280;41589;51.196;7.074;2023-11-21T15:18:33;99160.50;;;11.72;86.33
19576;BME280;41589;51.196;7.074;2023-11-21T15:23:35;99167.38;;;11.71;86.46
19576;BME280;41589;51.196;7.074;2023-11-21T15:28:36;99179.63;;;11.68;86.15
19576;BME280;41589;51.196;7.074;2023-11-21T15:33:36;99192.59;;;11.56;86.09
19576;BME280;41589;51.196;7.074;2023-11-21T15:38:37;99197.28;;;11.50;86.23
19576;BME280;41589;51.196;7.074;2023-11-21T15:43:37;99194.91;;;11.40;86.47
19576;BME280;41589;51.196;7.074;2023-11-21T15:48:38;99199.59;;;11.34;86.01
19576;BME280;41589;51.196;7.074;2023-11-21T15:53:43;99194.09;;;11.21;85.86
19576;BME280;41589;51.196;7.074;2023-11-21T15:58:44;99208.34;;;11.26;86.08
19576;BME280;41589;51.196;7.074;2023-11-21T16:03:45;99219.16;;;11.28;85.50
19576;BME280;41589;51.196;7.074;2023-11-21T16:08:48;99231.84;;;11.33;86.00
19576;BME280;41589;51.196;7.074;2023-11-21T16:13:48;99241.47;;;11.13;85.43
19576;BME280;41589;51.196;7.074;2023-11-21T16:18:49;99237.84;;;11.13;85.74
19576;BME280;41589;51.196;7.074;2023-11-21T16:23:49;99256.97;;;11.18;85.42
19576;BME280;41589;51.196;7.074;2023-11-21T16:28:50;99252.59;;;11.17;85.27
19576;BME280;41589;51.196;7.074;2023-11-21T16:33:51;99259.78;;;11.18;85.04
19576;BME280;41589;51.196;7.074;2023-11-21T16:38:51;99261.19;;;11.13;84.20
19576;BME280;41589;51.196;7.074;2023-11-21T16:43:51;99270.97;;;10.99;84.58
19576;BME280;41589;51.196;7.074;2023-11-21T16:48:52;99288.59;;;10.91;85.20
19576;BME280;41589;51.196;7.074;2023-11-21T16:53:53;99305.34;;;10.85;85.12
19576;BME280;41589;51.196;7.074;2023-11-21T16:58:53;99320.75;;;10.71;84.36
19576;BME280;41589;51.196;7.074;2023-11-21T17:03:55;99318.13;;;10.55;84.99
19576;BME280;41589;51.196;7.074;2023-11-21T17:08:58;99334.47;;;10.48;84.95
19576;BME280;41589;51.196;7.074;2023-11-21T17:14:00;99346.44;;;10.39;85.55
19576;BME280;41589;51.196;7.074;2023-11-21T17:19:01;99361.41;;;10.36;85.83
19576;BME280;41589;51.196;7.074;2023-11-21T17:24:04;99365.84;;;10.24;84.73
19576;BME280;41589;51.196;7.074;2023-11-21T17:29:04;99376.91;;;10.06;84.33
19576;BME280;41589;51.196;7.074;2023-11-21T17:34:05;99396.41;;;10.00;84.24
19576;BME280;41589;51.196;7.074;2023-11-21T17:39:05;99401.91;;;10.04;85.44
19576;BME280;41589;51.196;7.074;2023-11-21T17:44:10;99420.56;;;10.10;84.04
19576;BME280;41589;51.196;7.074;2023-11-21T17:49:11;99438.94;;;9.90;83.71
19576;BME280;41589;51.196;7.074;2023-11-21T17:54:11;99432.69;;;9.56;83.85
19576;BME280;41589;51.196;7.074;2023-11-21T17:59:11;99442.81;;;9.67;84.36
19576;BME280;41589;51.196;7.074;2023-11-21T18:04:16;99447.91;;;9.72;83.63
19576;BME280;41589;51.196;7.074;2023-11-21T18:09:16;99455.88;;;9.61;83.43
19576;BME280;41589;51.196;7.074;2023-11-21T18:14:17;99460.13;;;9.52;83.39
19576;BME280;41589;51.196;7.074;2023-11-21T18:19:18;99484.31;;;9.50;83.73
19576;BME280;41589;51.196;7.074;2023-11-21T18:24:19;99491.59;;;9.47;83.80
19576;BME280;41589;51.196;7.074;2023-11-21T18:29:19;99491.69;;;9.44;83.41
19576;BME280;41589;51.196;7.074;2023-11-21T18:34:20;99490.78;;;9.34;82.58
19576;BME280;41589;51.196;7.074;2023-11-21T18:39:20;99507.00;;;9.14;82.52
19576;BME280;41589;51.196;7.074;2023-11-21T18:44:20;99509.47;;;9.12;82.38
19576;BME280;41589;51.196;7.074;2023-11-21T18:49:21;99516.28;;;8.82;82.53
19576;BME280;41589;51.196;7.074;2023-11-21T18:54:21;99513.41;;;8.85;82.19
19576;BME280;41589;51.196;7.074;2023-11-21T18:59:22;99514.72;;;8.81;82.49
19576;BME280;41589;51.196;7.074;2023-11-21T19:04:22;99529.59;;;8.94;82.75
19576;BME280;41589;51.196;7.074;2023-11-21T19:09:24;99536.72;;;8.82;82.46
19576;BME280;41589;51.196;7.074;2023-11-21T19:14:25;99550.75;;;8.82;81.56
19576;BME280;41589;51.196;7.074;2023-11-21T19:19:25;99560.69;;;8.70;81.41
19576;BME280;41589;51.196;7.074;2023-11-21T19:24:25;99574.81;;;8.67;80.67
19576;BME280;41589;51.196;7.074;2023-11-21T19:29:26;99591.38;;;8.61;80.73
19576;BME280;41589;51.196;7.074;2023-11-21T19:34:26;99578.50;;;8.48;80.58
19576;BME280;41589;51.196;7.074;2023-11-21T19:39:26;99582.19;;;8.45;80.43
19576;BME280;41589;51.196;7.074;2023-11-21T19:44:27;99584.28;;;8.40;81.07
19576;BME280;41589;51.196;7.074;2023-11-21T19:49:28;99586.09;;;8.31;80.18
19576;BME280;41589;51.196;7.074;2023-11-21T19:54:28;99587.09;;;8.40;81.33
19576;BME280;41589;51.196;7.074;2023-11-21T19:59:30;99604.09;;;8.33;80.18
19576;BME280;41589;51.196;7.074;2023-11-21T20:04:31;99610.75;;;8.39;80.20
19576;BME280;41589;51.196;7.074;2023-11-21T20:09:32;99608.47;;;8.34;80.65
19576;BME280;41589;51.196;7.074;2023-11-21T20:14:32;99626.34;;;8.40;80.88
19576;BME280;41589;51.196;7.074;2023-11-21T20:19:35;99641.41;;;8.30;79.88
19576;BME280;41589;51.196;7.074;2023-11-21T20:24:36;99650.72;;;8.27;80.79
19576;BME280;41589;51.196;7.074;2023-11-21T20:29:37;99663.25;;;8.39;81.17
19576;BME280;41589;51.196;7.074;2023-11-21T20:34:40;99663.47;;;8.48;80.48
19576;BME280;41589;51.196;7.074;2023-11-21T20:39:40;99663.25;;;8.39;80.80
19576;BME280;41589;51.196;7.074;2023-11-21T20:44:41;99665.81;;;8.50;80.43
19576;BME280;41589;51.196;7.074;2023-11-21T20:49:41;99686.91;;;8.58;80.12
19576;BME280;41589;51.196;7.074;2023-11-21T20:54:41;99699.78;;;8.55;79.77
19576;BME280;41589;51.196;7.074;2023-11-21T20:59:42;99694.09;;;8.59;79.39
19576;BME280;41589;51.196;7.074;2023-11-21T21:04:43;99713.69;;;8.43;79.08
19576;BME280;41589;51.196;7.074;2023-11-21T21:09:44;99723.97;;;8.29;79.23
19576;BME280;41589;51.196;7.074;2023-11-21T21:14:44;99722.63;;;8.37;79.75
19576;BME280;41589;51.196;7.074;2023-11-21T21:19:44;99710.47;;;8.44;80.21
19576;BME280;41589;51.196;7.074;2023-11-21T21:24:45;99711.75;;;8.39;79.13
19576;BME280;41589;51.196;7.074;2023-11-21T21:29:45;99712.91;;;8.42;79.06
19576;BME280;41589;51.196;7.074;2023-11-21T21:34:46;99724.75;;;8.50;79.26
19576;BME280;41589;51.196;7.074;2023-11-21T21:39:46;99717.47;;;8.52;78.30
19576;BME280;41589;51.196;7.074;2023-11-21T21:44:48;99716.84;;;8.45;78.80
19576;BME280;41589;51.196;7.074;2023-11-21T21:49:49;99726.50;;;8.44;78.45
19576;BME280;41589;51.196;7.074;2023-11-21T21:54:50;99734.63;;;8.38;78.21
19576;BME280;41589;51.196;7.074;2023-11-21T21:59:51;99756.75;;;8.52;79.36
19576;BME280;41589;51.196;7.074;2023-11-21T22:04:52;99769.69;;;8.66;78.10
19576;BME280;41589;51.196;7.074;2023-11-21T22:09:52;99784.53;;;8.66;78.78
19576;BME280;41589;51.196;7.074;2023-11-21T22:14:52;99800.81;;;8.55;78.62
19576;BME280;41589;51.196;7.074;2023-11-21T22:19:54;99812.81;;;8.56;78.33
19576;BME280;41589;51.196;7.074;2023-11-21T22:24:54;99804.88;;;8.51;77.52
19576;BME280;41589;51.196;7.074;2023-11-21T22:29:55;99805.31;;;8.49;77.79
19576;BME280;41589;51.196;7.074;2023-11-21T22:34:55;99808.34;;;8.58;78.32
19576;BME280;41589;51.196;7.074;2023-11-21T22:39:56;99796.69;;;8.60;77.11
19576;BME280;41589;51.196;7.074;2023-11-21T22:44:57;99800.38;;;8.57;77.44
19576;BME280;41589;51.196;7.074;2023-11-21T22:49:57;99801.38;;;8.47;77.27
19576;BME280;41589;51.196;7.074;2023-11-21T22:54:57;99807.13;;;8.59;76.81
19576;BME280;41589;51.196;7.074;2023-11-21T22:59:58;99815.41;;;8.47;76.83
19576;BME280;41589;51.196;7.074;2023-11-21T23:04:58;99834.03;;;8.57;78.33
19576;BME280;41589;51.196;7.074;2023-11-21T23:09:58;99834.91;;;8.74;77.92
19576;BME280;41589;51.196;7.074;2023-11-21T23:14:59;99833.72;;;8.71;77.63
19576;BME280;41589;51.196;7.074;2023-11-21T23:19:59;99835.88;;;8.83;76.85
19576;BME280;41589;51.196;7.074;2023-11-21T23:25:00;99841.88;;;8.85;77.29
19576;BME280;41589;51.196;7.074;2023-11-21T23:30:00;99848.19;;;8.89;77.13
19576;BME280;41589;51.196;7.074;2023-11-21T23:35:01;99851.09;;;8.86;76.47
19576;BME280;41589;51.196;7.074;2023-11-21T23:40:01;99850.28;;;8.85;76.67
19576;BME280;41589;51.196;7.074;2023-11-21T23:45:07;99865.38;;;8.91;76.98
19576;BME280;41589;51.196;7.074;2023-11-21T23:50:08;99864.94;;;8.93;77.19
19576;BME280;41589;51.196;7.074;2023-11-21T23:55:08;99879.00;;;8.93;77.21
